Time;durP1;ratioP1;P1;durP2;ratioP2;P2;SDS_P1;SDS_P2;PMS_P1;PMS_P2;Temp;Humidity;BMP_temperature;BMP_pressure;BME280_temperature;BME280_humidity;BME280_pressure;Samples;Min_cycle;Max_cycle;Signal;HPM_P1;HPM_P2
2021/05/26 00:02:08;;;;;;;;;;;;;;;9.35;59.89;100671.53;1732119;81;20236;-75
2021/05/26 00:04:34;;;;;;;;;;;;;;;9.36;59.98;100674.97;1699873;81;20667;-76
2021/05/26 00:07:01;;;;;;;;;;;;;;;9.36;59.90;100674.50;1707058;82;20279;-75
2021/05/26 00:09:27;;;;;;;;;;;;;;;9.33;59.99;100669.84;1702713;81;20619;-75
2021/05/26 00:11:53;;;;;;;;;;;;;;;9.26;59.98;100670.33;1738276;81;20618;-75
2021/05/26 00:14:19;;;;;;;;;;;;;;;9.23;60.13;100669.07;1751624;81;20212;-75
2021/05/26 00:16:45;;;;;;;;;;;;;;;9.23;60.20;100672.94;1705693;81;20239;-75
2021/05/26 00:19:12;;;;;;;;;;;;;;;9.17;60.14;100669.12;1696348;82;20212;-75
2021/05/26 00:21:38;;;;;;;;;;;;;;;9.12;60.33;100674.33;1719719;81;20587;-75
2021/05/26 00:24:05;;;;;;;;;;;;;;;9.12;60.10;100676.05;1724141;81;20169;-74
2021/05/26 00:26:31;;;;;;;;;;;;;;;9.05;60.47;100672.67;1753412;81;20551;-74
2021/05/26 00:28:57;;;;;;;;;;;;;;;9.04;60.50;100668.81;1753285;81;20843;-74
2021/05/26 00:31:24;;;;;;;;;;;;;;;9.06;60.71;100670.95;1731845;81;20292;-74
2021/05/26 00:34:02;;;;;;;;;;;;;;;9.10;60.70;100664.89;1735565;81;20516;-74
2021/05/26 00:36:28;;;;;;;;;;;;;;;9.12;60.70;100664.01;1751629;81;20612;-74
2021/05/26 00:38:54;;;;;;;;;;;;;;;9.15;60.73;100663.98;1750062;81;20603;-74
2021/05/26 00:41:20;;;;;;;;;;;;;;;9.17;60.75;100663.53;1708832;81;20515;-74
2021/05/26 00:43:46;;;;;;;;;;;;;;;9.19;60.78;100669.53;1718492;82;20268;-74
2021/05/26 00:46:12;;;;;;;;;;;;;;;9.20;60.93;100669.09;1749484;81;20283;-74
2021/05/26 00:48:39;;;;;;;;;;;;;;;9.23;61.09;100667.34;1714878;81;20222;-74
2021/05/26 00:51:05;;;;;;;;;;;;;;;9.28;61.02;100663.00;1717734;81;20630;-74
2021/05/26 00:53:33;;;;;;;;;;;;;;;9.32;61.19;100662.97;1727678;81;20204;-74
2021/05/26 00:55:59;;;;;;;;;;;;;;;9.34;61.12;100658.20;1752104;81;20267;-74
2021/05/26 00:58:37;;;;;;;;;;;;;;;9.30;61.22;100655.23;1743011;81;20292;-74
2021/05/26 01:01:03;;;;;;;;;;;;;;;9.29;61.24;100656.11;1696083;81;20511;-74
2021/05/26 01:03:30;;;;;;;;;;;;;;;9.32;61.20;100656.52;1737486;81;20750;-74
2021/05/26 01:05:58;;;;;;;;;;;;;;;9.31;61.08;100654.37;1752417;81;20575;-76
2021/05/26 01:08:24;;;;;;;;;;;;;;;9.28;61.37;100649.23;1738337;81;20565;-75
2021/05/26 01:10:50;;;;;;;;;;;;;;;9.24;61.31;100648.84;1707663;81;20568;-75
2021/05/26 01:13:24;;;;;;;;;;;;;;;9.21;61.48;100656.62;1706282;81;20549;-75
2021/05/26 01:15:49;;;;;;;;;;;;;;;9.19;61.36;100653.20;1737786;81;20677;-75
2021/05/26 01:18:30;;;;;;;;;;;;;;;9.15;61.44;100656.24;1735568;81;20304;-75
2021/05/26 01:21:07;;;;;;;;;;;;;;;9.09;61.44;100656.30;1745894;81;20237;-75
2021/05/26 01:23:33;;;;;;;;;;;;;;;9.06;61.44;100660.19;1724021;82;20230;-75
2021/05/26 01:26:05;;;;;;;;;;;;;;;9.00;61.68;100657.67;1720522;81;20204;-75
2021/05/26 01:28:32;;;;;;;;;;;;;;;8.95;61.68;100657.70;1708646;82;20508;-75
2021/05/26 01:30:58;;;;;;;;;;;;;;;8.93;61.75;100658.59;1739028;81;20239;-75
2021/05/26 01:33:25;;;;;;;;;;;;;;;8.88;61.80;100666.80;1728613;81;20265;-75
2021/05/26 01:35:51;;;;;;;;;;;;;;;8.84;61.76;100666.40;1727228;81;20290;-75
2021/05/26 01:38:20;;;;;;;;;;;;;;;8.81;61.91;100667.74;1740862;81;20168;-75
2021/05/26 01:40:49;;;;;;;;;;;;;;;8.79;62.05;100665.18;1735503;81;20197;-75
2021/05/26 01:43:16;;;;;;;;;;;;;;;8.77;62.05;100666.06;1721033;83;20298;-75
2021/05/26 01:45:42;;;;;;;;;;;;;;;8.74;62.13;100670.80;1706454;81;20266;-75
2021/05/26 01:48:08;;;;;;;;;;;;;;;8.70;61.99;100670.41;1748144;81;21049;-75
2021/05/26 01:50:35;;;;;;;;;;;;;;;8.67;62.21;100666.99;1716499;81;20528;-75
2021/05/26 01:53:07;;;;;;;;;;;;;;;8.55;62.07;100666.21;1708657;81;20519;-75
2021/05/26 01:55:35;;;;;;;;;;;;;;;8.52;62.33;100671.38;1719628;82;21310;-74
2021/05/26 01:58:02;;;;;;;;;;;;;;;8.53;62.32;100670.52;1723979;82;20587;-74
2021/05/26 02:00:28;;;;;;;;;;;;;;;8.52;62.48;100670.53;1737356;81;20181;-75
2021/05/26 02:02:54;;;;;;;;;;;;;;;8.51;62.47;100668.81;1732129;81;20257;-75
2021/05/26 02:05:21;;;;;;;;;;;;;;;8.47;62.46;100673.14;1741019;81;20247;-75
2021/05/26 02:07:47;;;;;;;;;;;;;;;8.47;62.58;100677.44;1744423;81;20249;-75
2021/05/26 02:10:16;;;;;;;;;;;;;;;8.44;62.59;100677.45;1720237;82;20262;-75
2021/05/26 02:12:49;;;;;;;;;;;;;;;8.39;62.73;100680.48;1686837;82;20272;-75
2021/05/26 02:15:16;;;;;;;;;;;;;;;8.35;62.77;100673.21;1705523;84;20325;-75
2021/05/26 02:17:42;;;;;;;;;;;;;;;8.38;62.84;100678.34;1699582;83;20269;-75
2021/05/26 02:20:10;;;;;;;;;;;;;;;8.39;62.83;100681.34;1712857;82;20298;-75
2021/05/26 02:22:36;;;;;;;;;;;;;;;8.37;62.72;100683.51;1720989;82;20239;-75
2021/05/26 02:25:05;;;;;;;;;;;;;;;8.34;62.89;100682.23;1680365;83;20455;-74
2021/05/26 02:27:31;;;;;;;;;;;;;;;8.34;62.90;100688.24;1707653;83;20186;-74
2021/05/26 02:29:57;;;;;;;;;;;;;;;8.33;62.92;100691.69;1714271;82;20210;-74
2021/05/26 02:32:26;;;;;;;;;;;;;;;8.33;63.01;100689.11;1709916;83;20169;-74
2021/05/26 02:34:52;;;;;;;;;;;;;;;8.34;63.02;100687.39;1707413;83;20210;-74
2021/05/26 02:37:18;;;;;;;;;;;;;;;8.32;63.04;100688.66;1711397;82;20263;-74
2021/05/26 02:39:44;;;;;;;;;;;;;;;8.30;63.01;100689.13;1706813;84;20214;-74
2021/05/26 02:42:11;;;;;;;;;;;;;;;8.30;63.03;100691.70;1716994;83;20532;-74
2021/05/26 02:44:52;;;;;;;;;;;;;;;8.27;62.99;100690.43;1696164;82;20258;-75
2021/05/26 02:47:18;;;;;;;;;;;;;;;8.22;63.10;100687.87;1719660;83;20485;-75
2021/05/26 02:49:44;;;;;;;;;;;;;;;8.21;63.13;100687.45;1720339;82;20272;-75
2021/05/26 02:52:22;;;;;;;;;;;;;;;8.16;63.03;100686.62;1717230;82;20193;-75
2021/05/26 02:54:49;;;;;;;;;;;;;;;8.11;63.15;100693.51;1699556;83;20225;-75
2021/05/26 02:57:15;;;;;;;;;;;;;;;8.06;63.21;100691.81;1699155;83;20292;-75
2021/05/26 02:59:41;;;;;;;;;;;;;;;8.04;63.40;100694.40;1698499;83;20233;-76
2021/05/26 03:02:07;;;;;;;;;;;;;;;8.03;63.46;100697.84;1720049;82;20895;-75
2021/05/26 03:04:34;;;;;;;;;;;;;;;8.04;63.44;100697.41;1702614;83;20235;-75
2021/05/26 03:07:00;;;;;;;;;;;;;;;8.01;63.48;100705.14;1708616;83;20266;-75
2021/05/26 03:09:26;;;;;;;;;;;;;;;8.02;63.58;100707.71;1714836;81;20260;-75
2021/05/26 03:11:53;;;;;;;;;;;;;;;8.03;63.60;100702.98;1729647;81;20226;-75
2021/05/26 03:14:19;;;;;;;;;;;;;;;8.05;63.57;100708.13;1748909;81;20209;-75
2021/05/26 03:16:45;;;;;;;;;;;;;;;8.00;63.57;100712.02;1727999;81;20210;-75
2021/05/26 03:19:11;;;;;;;;;;;;;;;8.00;63.67;100716.30;1722084;81;20237;-75
2021/05/26 03:21:39;;;;;;;;;;;;;;;7.98;63.68;100713.73;1712561;81;20295;-75
2021/05/26 03:24:07;;;;;;;;;;;;;;;7.96;63.72;100708.59;1715444;81;20315;-75
2021/05/26 03:26:33;;;;;;;;;;;;;;;7.98;63.89;100712.45;1679536;81;20332;-75
2021/05/26 03:28:59;;;;;;;;;;;;;;;8.04;63.89;100715.44;1752240;81;20216;-75
2021/05/26 03:31:25;;;;;;;;;;;;;;;8.07;63.97;100715.42;1729877;81;20241;-75
2021/05/26 03:33:52;;;;;;;;;;;;;;;8.08;63.90;100711.98;1733614;81;20196;-75
2021/05/26 03:36:18;;;;;;;;;;;;;;;8.08;63.98;100714.13;1752067;81;20346;-75
2021/05/26 03:38:43;;;;;;;;;;;;;;;8.09;64.01;100720.13;1723152;81;20241;-75
2021/05/26 03:41:09;;;;;;;;;;;;;;;8.11;64.10;100716.69;1722694;81;20473;-75
2021/05/26 03:43:35;;;;;;;;;;;;;;;8.13;64.15;100716.69;1752136;81;20283;-75
2021/05/26 03:46:03;;;;;;;;;;;;;;;8.15;64.21;100711.95;1722330;81;20312;-75
2021/05/26 03:48:29;;;;;;;;;;;;;;;8.20;64.26;100714.08;1714434;82;20275;-75
2021/05/26 03:50:55;;;;;;;;;;;;;;;8.21;64.27;100711.92;1674127;81;5000582;-75
2021/05/26 03:53:21;;;;;;;;;;;;;;;8.23;64.29;100714.49;1717093;81;20216;-75
2021/05/26 03:55:47;;;;;;;;;;;;;;;8.25;64.34;100718.77;1719210;81;20548;-75
2021/05/26 03:58:15;;;;;;;;;;;;;;;8.29;64.36;100712.74;1725487;82;20210;-75
2021/05/26 04:00:40;;;;;;;;;;;;;;;8.36;64.42;100714.00;1751487;81;20236;-75
2021/05/26 04:03:07;;;;;;;;;;;;;;;8.48;64.64;100709.64;1742775;81;20295;-75
2021/05/26 04:05:33;;;;;;;;;;;;;;;8.77;64.78;100713.75;1728159;81;20188;-75
2021/05/26 04:07:59;;;;;;;;;;;;;;;9.09;64.70;100709.61;1720454;81;20252;-75
2021/05/26 04:10:25;;;;;;;;;;;;;;;9.34;64.62;100709.82;1738772;81;20316;-75
2021/05/26 04:12:51;;;;;;;;;;;;;;;9.55;64.42;100708.29;1705266;83;20272;-75
2021/05/26 04:15:17;;;;;;;;;;;;;;;9.67;64.40;100707.31;1724337;82;20295;-75
2021/05/26 04:17:45;;;;;;;;;;;;;;;9.72;64.17;100704.67;1733335;81;20255;-76
2021/05/26 04:20:12;;;;;;;;;;;;;;;9.69;64.17;100718.91;1724144;82;20216;-75
2021/05/26 04:22:38;;;;;;;;;;;;;;;9.69;63.98;100708.15;1741311;81;20248;-75
2021/05/26 04:25:06;;;;;;;;;;;;;;;9.68;64.21;100710.31;1720528;81;20280;-74
2021/05/26 04:27:32;;;;;;;;;;;;;;;9.71;64.34;100713.30;1716326;81;20205;-75
2021/05/26 04:30:00;;;;;;;;;;;;;;;9.77;64.37;100708.06;1734827;81;20204;-75
2021/05/26 04:32:26;;;;;;;;;;;;;;;9.78;64.35;100705.47;1725417;81;20203;-75
2021/05/26 04:34:52;;;;;;;;;;;;;;;9.84;64.46;100716.16;1753525;81;20165;-75
2021/05/26 04:37:18;;;;;;;;;;;;;;;9.91;64.41;100712.17;1753641;81;20307;-75
2021/05/26 04:39:45;;;;;;;;;;;;;;;10.00;64.48;100711.20;1745549;81;20198;-75
2021/05/26 04:42:11;;;;;;;;;;;;;;;10.10;64.45;100715.83;1716284;82;20169;-75
2021/05/26 04:44:38;;;;;;;;;;;;;;;10.21;64.59;100716.14;1719178;81;20137;-75
2021/05/26 04:47:14;;;;;;;;;;;;;;;10.35;64.44;100708.21;1753787;81;20157;-75
2021/05/26 04:49:40;;;;;;;;;;;;;;;10.46;64.40;100702.42;1734754;81;20158;-75
2021/05/26 04:52:06;;;;;;;;;;;;;;;10.61;64.34;100705.23;1724072;82;20185;-75
2021/05/26 04:54:34;;;;;;;;;;;;;;;10.73;64.38;100708.08;1725453;82;20162;-75
2021/05/26 04:57:00;;;;;;;;;;;;;;;10.86;64.41;100705.72;1747375;81;20228;-75
2021/05/26 04:59:26;;;;;;;;;;;;;;;11.01;64.39;100712.35;1714634;81;20229;-75
2021/05/26 05:01:52;;;;;;;;;;;;;;;11.09;64.27;100709.20;1721657;82;20185;-75
2021/05/26 05:04:18;;;;;;;;;;;;;;;11.13;64.07;100700.51;1721654;81;20274;-75
2021/05/26 05:06:44;;;;;;;;;;;;;;;11.15;64.12;100703.92;1726092;81;20286;-75
2021/05/26 05:09:10;;;;;;;;;;;;;;;11.20;64.15;100703.41;1729013;81;20303;-75
2021/05/26 05:11:45;;;;;;;;;;;;;;;11.27;64.24;100705.87;1749562;81;20544;-75
2021/05/26 05:14:11;;;;;;;;;;;;;;;11.36;64.19;100702.27;1733439;81;20185;-75
2021/05/26 05:16:37;;;;;;;;;;;;;;;11.44;63.99;100701.66;1754359;81;20202;-75
2021/05/26 05:19:04;;;;;;;;;;;;;;;11.61;64.26;100706.53;1727959;81;20225;-75
2021/05/26 05:21:31;;;;;;;;;;;;;;;11.87;64.46;100705.63;1726142;81;20603;-75
2021/05/26 05:24:12;;;;;;;;;;;;;;;12.44;64.66;100700.52;1725171;81;20297;-75
2021/05/26 05:26:38;;;;;;;;;;;;;;;13.04;64.05;100701.22;1748321;81;20311;-75
2021/05/26 05:29:04;;;;;;;;;;;;;;;13.11;63.47;100707.97;1716655;81;20520;-75
2021/05/26 05:31:31;;;;;;;;;;;;;;;13.03;63.30;100706.00;1734588;82;20236;-75
2021/05/26 05:33:58;;;;;;;;;;;;;;;12.98;63.41;100711.34;1742572;81;20288;-75
2021/05/26 05:36:24;;;;;;;;;;;;;;;12.88;63.28;100701.63;1719693;81;20235;-75
2021/05/26 05:38:50;;;;;;;;;;;;;;;12.80;63.28;100707.88;1718636;81;20252;-75
2021/05/26 05:41:16;;;;;;;;;;;;;;;12.63;63.31;100713.45;1717775;81;20352;-75
2021/05/26 05:43:43;;;;;;;;;;;;;;;12.47;63.45;100710.39;1707915;81;20402;-75
2021/05/26 05:46:09;;;;;;;;;;;;;;;12.37;63.34;100699.80;1724399;81;20259;-75
2021/05/26 05:48:35;;;;;;;;;;;;;;;12.34;63.54;100700.31;1749622;81;20260;-75
2021/05/26 05:51:03;;;;;;;;;;;;;;;12.30;63.47;100702.56;1748071;81;20297;-75
2021/05/26 05:53:29;;;;;;;;;;;;;;;12.22;63.47;100697.54;1731430;81;20285;-75
2021/05/26 05:55:58;;;;;;;;;;;;;;;12.26;63.68;100695.29;1751068;81;20256;-76
2021/05/26 05:58:24;;;;;;;;;;;;;;;12.29;63.53;100700.41;1763018;81;20260;-75
2021/05/26 06:00:50;;;;;;;;;;;;;;;12.24;63.38;100700.51;1750386;81;20269;-75
2021/05/26 06:03:16;;;;;;;;;;;;;;;12.21;63.36;100698.42;1727862;81;20317;-75
2021/05/26 06:05:44;;;;;;;;;;;;;;;12.12;63.30;100698.62;1749690;81;20291;-75
2021/05/26 06:08:10;;;;;;;;;;;;;;;12.11;63.47;100699.06;1763100;81;20264;-75
2021/05/26 06:10:36;;;;;;;;;;;;;;;12.10;63.32;100697.35;1741863;81;20249;-75
2021/05/26 06:13:07;;;;;;;;;;;;;;;12.24;63.63;100703.55;1739519;81;20289;-75
2021/05/26 06:15:30;;;;;;;;;;;;;;;12.53;63.71;100701.14;1718962;81;20196;-75
2021/05/26 06:17:59;;;;;;;;;;;;;;;12.78;63.52;100691.05;1712127;81;20258;-76
2021/05/26 06:20:25;;;;;;;;;;;;;;;12.93;63.35;100691.13;1716390;81;20190;-75
2021/05/26 06:22:51;;;;;;;;;;;;;;;13.00;63.42;100689.23;1742805;81;20165;-75
2021/05/26 06:25:18;;;;;;;;;;;;;;;13.61;64.28;100687.63;1738977;82;20194;-75
2021/05/26 06:27:45;;;;;;;;;;;;;;;14.49;63.68;100687.22;1725534;81;20192;-75
2021/05/26 06:30:12;;;;;;;;;;;;;;;15.06;63.21;100687.53;1733061;82;20145;-75
2021/05/26 06:32:38;;;;;;;;;;;;;;;15.44;63.11;100688.81;1746446;81;20159;-75
2021/05/26 06:35:05;;;;;;;;;;;;;;;15.99;62.86;100680.31;1724813;81;20268;-75
2021/05/26 06:37:31;;;;;;;;;;;;;;;16.18;62.10;100677.38;1734358;82;20218;-75
2021/05/26 06:39:59;;;;;;;;;;;;;;;16.17;62.13;100686.12;1750603;82;20173;-76
2021/05/26 06:42:25;;;;;;;;;;;;;;;15.99;62.18;100684.23;1745738;81;20265;-76
2021/05/26 06:44:51;;;;;;;;;;;;;;;15.82;62.04;100679.62;1712006;82;20200;-75
2021/05/26 06:47:17;;;;;;;;;;;;;;;15.79;62.36;100680.19;1751246;81;20193;-75
2021/05/26 06:49:43;;;;;;;;;;;;;;;15.76;61.99;100677.70;1744371;81;20176;-75
2021/05/26 06:52:15;;;;;;;;;;;;;;;15.74;62.10;100675.14;1723474;82;20187;-75
2021/05/26 06:54:41;;;;;;;;;;;;;;;15.87;62.39;100672.48;1720730;82;20188;-75
2021/05/26 06:57:07;;;;;;;;;;;;;;;15.95;61.83;100674.81;1750790;81;20765;-75
2021/05/26 06:59:35;;;;;;;;;;;;;;;15.91;61.88;100680.20;1717843;82;20202;-75
2021/05/26 07:02:01;;;;;;;;;;;;;;;15.76;61.63;100677.70;1726235;81;20205;-75
2021/05/26 07:04:30;;;;;;;;;;;;;;;15.56;61.73;100677.11;1725297;82;20167;-75
2021/05/26 07:06:56;;;;;;;;;;;;;;;15.36;61.60;100671.73;1705603;82;20221;-75
2021/05/26 07:09:23;;;;;;;;;;;;;;;15.24;61.65;100666.49;1716710;82;20151;-75
2021/05/26 07:11:48;;;;;;;;;;;;;;;15.12;61.74;100670.81;1709928;83;20211;-75
2021/05/26 07:14:15;;;;;;;;;;;;;;;15.13;61.82;100662.09;1714756;83;20186;-75
2021/05/26 07:16:41;;;;;;;;;;;;;;;15.14;61.70;100665.10;1708826;83;20207;-75
2021/05/26 07:19:07;;;;;;;;;;;;;;;15.35;61.75;100667.43;1721131;83;20193;-75
2021/05/26 07:21:36;;;;;;;;;;;;;;;15.44;61.64;100664.50;1700911;82;20195;-75
2021/05/26 07:24:02;;;;;;;;;;;;;;;15.46;61.60;100665.30;1711186;83;20157;-75
2021/05/26 07:26:29;;;;;;;;;;;;;;;15.59;61.78;100662.69;1705944;82;20194;-75
2021/05/26 07:28:55;;;;;;;;;;;;;;;16.11;61.47;100660.75;1694526;82;20162;-75
2021/05/26 07:31:22;;;;;;;;;;;;;;;16.43;61.63;100659.48;1721450;82;20165;-75
2021/05/26 07:33:48;;;;;;;;;;;;;;;16.90;61.67;100656.27;1715224;82;20181;-75
2021/05/26 07:36:14;;;;;;;;;;;;;;;17.12;61.42;100658.38;1697389;83;20195;-75
2021/05/26 07:38:44;;;;;;;;;;;;;;;17.30;61.04;100660.64;1704829;83;20290;-76
2021/05/26 07:41:10;;;;;;;;;;;;;;;17.47;60.39;100655.53;1695149;83;20773;-76
2021/05/26 07:43:36;;;;;;;;;;;;;;;17.40;60.75;100656.72;1692117;82;20241;-76
2021/05/26 07:46:03;;;;;;;;;;;;;;;17.39;60.44;100654.16;1707439;83;20303;-75
2021/05/26 07:48:29;;;;;;;;;;;;;;;17.51;60.84;100653.63;1714372;83;20226;-75
2021/05/26 07:50:55;;;;;;;;;;;;;;;18.00;61.11;100658.83;1695603;83;20277;-75
2021/05/26 07:53:21;;;;;;;;;;;;;;;18.53;60.36;100660.67;1701289;82;20297;-75
2021/05/26 07:55:47;;;;;;;;;;;;;;;18.67;59.94;100661.34;1709686;83;20194;-75
2021/05/26 07:58:13;;;;;;;;;;;;;;;18.51;59.56;100659.44;1713911;82;21053;-75
2021/05/26 08:00:39;;;;;;;;;;;;;;;18.55;59.74;100662.76;1713754;82;20205;-75
2021/05/26 08:03:06;;;;;;;;;;;;;;;18.37;59.52;100650.54;1718619;82;20784;-75
2021/05/26 08:05:34;;;;;;;;;;;;;;;18.00;59.62;100667.98;1701337;82;507287;-75
2021/05/26 08:08:00;;;;;;;;;;;;;;;17.69;59.34;100661.97;1699460;83;21087;-75
2021/05/26 08:10:26;;;;;;;;;;;;;;;17.42;59.47;100657.50;1733369;82;20181;-75
2021/05/26 08:12:52;;;;;;;;;;;;;;;17.13;59.31;100666.61;1739736;81;20158;-75
2021/05/26 08:15:19;;;;;;;;;;;;;;;16.92;59.29;100653.59;1699228;82;20221;-76
2021/05/26 08:17:45;;;;;;;;;;;;;;;16.65;59.26;100652.95;1737744;82;20161;-76
2021/05/26 08:20:14;;;;;;;;;;;;;;;16.56;59.45;100660.70;1751401;81;20170;-76
2021/05/26 08:22:40;;;;;;;;;;;;;;;16.60;59.47;100653.14;1718009;81;20504;-76
2021/05/26 08:25:07;;;;;;;;;;;;;;;16.65;59.20;100656.87;1732518;82;20305;-75
2021/05/26 08:27:34;;;;;;;;;;;;;;;16.71;59.03;100647.03;1729948;81;20197;-75
2021/05/26 08:30:01;;;;;;;;;;;;;;;16.71;58.83;100648.33;1705045;82;20263;-76
2021/05/26 08:32:28;;;;;;;;;;;;;;;16.79;58.64;100642.34;1748900;82;20145;-76
2021/05/26 08:34:57;;;;;;;;;;;;;;;16.90;58.71;100640.59;1741167;81;20154;-76
2021/05/26 08:37:24;;;;;;;;;;;;;;;17.02;58.58;100646.61;1729064;82;20212;-76
2021/05/26 08:39:50;;;;;;;;;;;;;;;17.35;58.80;100640.37;1749750;81;20197;-76
2021/05/26 08:42:18;;;;;;;;;;;;;;;17.52;58.37;100638.33;1749757;81;20249;-76
2021/05/26 08:44:45;;;;;;;;;;;;;;;17.59;58.39;100642.84;1739533;81;20162;-76
2021/05/26 08:47:19;;;;;;;;;;;;;;;17.49;57.91;100646.31;1709121;82;20256;-76
2021/05/26 08:49:51;;;;;;;;;;;;;;;17.25;57.48;100645.61;1700751;82;20193;-76
2021/05/26 08:52:18;;;;;;;;;;;;;;;17.36;58.01;100638.16;1744965;82;20161;-76
2021/05/26 08:54:47;;;;;;;;;;;;;;;17.40;58.00;100649.33;1751480;81;20149;-76
2021/05/26 08:57:14;;;;;;;;;;;;;;;17.26;57.84;100650.37;1715576;81;20172;-76
2021/05/26 08:59:40;;;;;;;;;;;;;;;17.11;57.73;100651.91;1698133;83;20172;-76
2021/05/26 09:02:13;;;;;;;;;;;;;;;16.96;57.53;100649.94;1713666;82;20217;-76
2021/05/26 09:04:45;;;;;;;;;;;;;;;16.84;57.58;100646.07;1733043;81;20165;-76
2021/05/26 09:07:19;;;;;;;;;;;;;;;16.61;57.28;100649.61;1729135;81;20242;-76
2021/05/26 09:09:52;;;;;;;;;;;;;;;16.54;57.46;100646.40;1737452;82;20141;-76
2021/05/26 09:12:29;;;;;;;;;;;;;;;16.53;57.58;100649.07;1703927;81;20193;-76
2021/05/26 09:15:11;;;;;;;;;;;;;;;16.42;57.25;100647.34;1729180;82;20219;-76
2021/05/26 09:17:38;;;;;;;;;;;;;;;16.20;57.04;100653.39;1710006;82;20596;-76
2021/05/26 09:20:15;;;;;;;;;;;;;;;16.16;57.12;100653.11;1743937;82;20554;-76
2021/05/26 09:22:59;;;;;;;;;;;;;;;16.14;57.14;100652.77;1718894;82;20166;-76
2021/05/26 09:25:31;;;;;;;;;;;;;;;16.12;56.97;100658.05;1705678;83;20145;-74
2021/05/26 09:28:19;;;;;;;;;;;;;;;15.99;56.82;100653.38;1722998;82;20189;-74
2021/05/26 09:30:54;;;;;;;;;;;;;;;16.05;57.08;100656.61;1748132;81;20249;-74
2021/05/26 09:33:35;;;;;;;;;;;;;;;16.22;57.04;100652.02;1711805;83;20730;-75
2021/05/26 09:36:20;;;;;;;;;;;;;;;16.32;56.67;100652.06;1703977;82;20435;-75
2021/05/26 09:38:57;;;;;;;;;;;;;;;16.41;56.58;100644.33;1736234;81;20260;-75
2021/05/26 09:41:37;;;;;;;;;;;;;;;16.59;56.69;100645.36;1717304;82;20249;-75
2021/05/26 09:44:10;;;;;;;;;;;;;;;16.81;56.89;100634.44;1717929;81;20584;-75
2021/05/26 09:46:46;;;;;;;;;;;;;;;16.96;56.44;100637.73;1742881;82;20448;-75
2021/05/26 09:49:17;;;;;;;;;;;;;;;17.12;56.40;100631.40;1729890;81;21169;-75
2021/05/26 09:51:51;;;;;;;;;;;;;;;17.24;56.43;100615.63;1726418;82;20227;-75
2021/05/26 09:54:26;;;;;;;;;;;;;;;17.23;56.01;100617.39;1705967;81;20181;-76
2021/05/26 09:57:04;;;;;;;;;;;;;;;17.15;56.09;100631.27;1701159;82;20197;-76
2021/05/26 09:59:32;;;;;;;;;;;;;;;17.04;55.98;100630.88;1743668;81;20524;-76
2021/05/26 10:01:58;;;;;;;;;;;;;;;16.82;55.78;100629.61;1714358;82;20165;-76
2021/05/26 10:04:25;;;;;;;;;;;;;;;16.72;56.05;100623.92;1733226;82;20169;-76
2021/05/26 10:06:55;;;;;;;;;;;;;;;16.66;55.89;100625.47;1734712;81;20503;-76
2021/05/26 10:09:23;;;;;;;;;;;;;;;16.53;55.94;100626.42;1712609;82;20149;-76
2021/05/26 10:11:54;;;;;;;;;;;;;;;16.42;55.88;100629.92;1725167;82;20208;-76
2021/05/26 10:14:21;;;;;;;;;;;;;;;16.20;55.88;100632.52;1743157;82;20276;-76
2021/05/26 10:16:50;;;;;;;;;;;;;;;16.05;56.22;100627.92;1720050;81;20296;-76
2021/05/26 10:19:17;;;;;;;;;;;;;;;16.14;56.59;100617.09;1706380;82;20286;-76
2021/05/26 10:21:46;;;;;;;;;;;;;;;16.29;56.53;100606.98;1698363;82;20272;-76
2021/05/26 10:24:21;;;;;;;;;;;;;;;16.48;56.38;100600.96;1717139;82;20206;-75
2021/05/26 10:26:59;;;;;;;;;;;;;;;16.73;56.51;100596.89;1722122;81;20284;-75
2021/05/26 10:29:31;;;;;;;;;;;;;;;16.96;56.14;100592.02;1716897;81;20575;-76
2021/05/26 10:32:05;;;;;;;;;;;;;;;17.06;55.76;100593.78;1743744;81;20249;-76
2021/05/26 10:34:47;;;;;;;;;;;;;;;17.06;55.45;100610.30;1709998;82;20244;-76
2021/05/26 10:37:16;;;;;;;;;;;;;;;17.07;55.74;100602.86;1728417;82;20238;-75
2021/05/26 10:39:44;;;;;;;;;;;;;;;17.20;55.73;100597.92;1736497;82;20276;-75
2021/05/26 10:42:30;;;;;;;;;;;;;;;17.26;55.43;100592.42;1725916;82;20262;-75
2021/05/26 10:45:06;;;;;;;;;;;;;;;17.23;55.46;100589.09;1725275;82;20273;-75
2021/05/26 10:47:39;;;;;;;;;;;;;;;17.23;55.41;100598.24;1737128;82;20261;-75
2021/05/26 10:50:15;;;;;;;;;;;;;;;17.13;55.06;100589.98;1737525;82;20193;-75
2021/05/26 10:53:01;;;;;;;;;;;;;;;17.02;55.25;100587.84;1708322;82;20428;-75
2021/05/26 10:55:38;;;;;;;;;;;;;;;17.05;55.23;100584.24;1728710;82;20232;-75
2021/05/26 10:58:19;;;;;;;;;;;;;;;17.06;55.44;100584.17;1722379;82;20185;-75
2021/05/26 11:01:01;;;;;;;;;;;;;;;17.16;55.67;100585.91;1717149;82;20265;-76
2021/05/26 11:03:30;;;;;;;;;;;;;;;17.19;55.27;100571.40;1734662;82;20258;-76
2021/05/26 11:06:21;;;;;;;;;;;;;;;17.20;55.42;100568.72;1723406;82;20193;-76
2021/05/26 11:08:49;;;;;;;;;;;;;;;17.33;55.46;100555.95;1724090;82;20623;-74
2021/05/26 11:11:26;;;;;;;;;;;;;;;17.58;55.12;100549.63;1733221;82;20657;-76
2021/05/26 11:14:12;;;;;;;;;;;;;;;17.54;54.71;100543.69;1736461;81;20233;-75
2021/05/26 11:16:56;;;;;;;;;;;;;;;17.53;55.00;100545.91;1719536;81;20292;-76
2021/05/26 11:19:21;;;;;;;;;;;;;;;17.65;54.80;100543.19;1752485;81;20209;-76
2021/05/26 11:22:11;;;;;;;;;;;;;;;17.76;54.71;100541.78;1737004;81;20198;-76
2021/05/26 11:24:40;;;;;;;;;;;;;;;17.82;54.60;100538.03;1748167;81;20196;-75
2021/05/26 11:27:15;;;;;;;;;;;;;;;17.75;54.54;100540.08;1737110;81;20178;-75
2021/05/26 11:29:41;;;;;;;;;;;;;;;17.79;54.57;100529.02;1760220;81;20452;-75
2021/05/26 11:32:15;;;;;;;;;;;;;;;17.81;54.42;100529.80;1764793;81;20172;-75
2021/05/26 11:34:48;;;;;;;;;;;;;;;17.82;54.05;100541.49;1732180;81;20197;-76
2021/05/26 11:37:26;;;;;;;;;;;;;;;17.84;54.07;100537.50;1718776;81;20165;-76
2021/05/26 11:39:52;;;;;;;;;;;;;;;17.84;53.67;100537.03;1754636;81;20206;-76
2021/05/26 11:42:27;;;;;;;;;;;;;;;17.80;53.79;100531.56;1718500;82;20236;-76
2021/05/26 11:45:01;;;;;;;;;;;;;;;17.75;53.45;100532.70;1738737;81;20172;-76
2021/05/26 11:47:34;;;;;;;;;;;;;;;17.70;53.70;100528.98;1715047;81;20193;-76
2021/05/26 11:50:19;;;;;;;;;;;;;;;17.74;53.78;100527.08;1748330;81;20165;-76
2021/05/26 11:53:01;;;;;;;;;;;;;;;17.74;53.54;100527.08;1742029;81;20184;-76
2021/05/26 11:55:28;;;;;;;;;;;;;;;17.74;53.41;100533.61;1731338;81;20176;-76
2021/05/26 11:57:56;;;;;;;;;;;;;;;17.63;53.30;100526.72;1728998;81;20169;-76
2021/05/26 12:00:31;;;;;;;;;;;;;;;17.53;53.11;100528.45;1748688;81;20168;-76
2021/05/26 12:03:08;;;;;;;;;;;;;;;17.44;53.15;100520.19;1736395;81;20482;-76
2021/05/26 12:05:55;;;;;;;;;;;;;;;17.35;53.07;100521.91;1738336;81;20184;-76
2021/05/26 12:08:24;;;;;;;;;;;;;;;17.32;53.08;100511.59;1735449;81;20166;-76
2021/05/26 12:10:57;;;;;;;;;;;;;;;17.38;53.10;100510.01;1732026;81;20517;-76
2021/05/26 12:13:26;;;;;;;;;;;;;;;17.42;53.08;100505.03;1724137;81;20213;-76
2021/05/26 12:15:53;;;;;;;;;;;;;;;17.49;53.01;100495.53;1707775;82;20173;-76
2021/05/26 12:18:19;;;;;;;;;;;;;;;17.70;53.13;100491.52;1708785;81;20543;-76
2021/05/26 12:20:50;;;;;;;;;;;;;;;17.88;53.07;100481.95;1712234;82;20141;-76
2021/05/26 12:23:38;;;;;;;;;;;;;;;17.92;52.82;100481.73;1735447;81;20167;-75
2021/05/26 12:26:31;;;;;;;;;;;;;;;17.92;52.56;100477.81;1732895;81;20553;-75
2021/05/26 12:28:59;;;;;;;;;;;;;;;17.94;52.64;100469.89;1752916;81;20177;-75
2021/05/26 12:31:30;;;;;;;;;;;;;;;18.07;52.56;100472.30;1740208;81;20161;-75
2021/05/26 12:33:56;;;;;;;;;;;;;;;18.17;52.11;100466.99;1737311;81;20500;-75
2021/05/26 12:36:24;;;;;;;;;;;;;;;18.17;51.99;100471.77;1719072;81;20165;-75
2021/05/26 12:39:06;;;;;;;;;;;;;;;18.17;51.73;100469.61;1734816;81;20856;-75
2021/05/26 12:41:35;;;;;;;;;;;;;;;18.14;51.59;100460.60;1741766;81;20464;-76
2021/05/26 12:44:10;;;;;;;;;;;;;;;18.11;51.72;100455.52;1738131;81;20186;-76
2021/05/26 12:46:41;;;;;;;;;;;;;;;18.18;51.66;100455.61;1732078;81;21083;-76
2021/05/26 12:49:27;;;;;;;;;;;;;;;18.36;51.70;100454.65;1713970;82;20492;-76
2021/05/26 12:51:56;;;;;;;;;;;;;;;18.44;51.26;100447.25;1685518;84;20492;-76